Nearby METAR Reports

 

KDLZ - Delaware, Ohio, USA
Distance from station: SW 3mi, 5km
Updated: Thu, 02-Apr-2020 4:55am EDT
Clear
Clear
 Wind from NW
Wind: NW 5 mph , 7 km/h
Temperature: 36°F , 2°C
Wind Chill: 32°F , 0°C
Dew Point: 36°F , 2°C
Humidity: 100%
Barometer: 30.09 inHg , 1019 hPa
Clouds: Clear
Visibility: 10 miles , 16 km
2020/04/02 08:55 KDLZ 020855Z AUTO 31004KT 10SM CLR 02/02 A3009 RMK AO2
KOSU - Columbus/St Univ, Ohio, USA
Distance from station: S 16mi, 25km
Updated: Thu, 02-Apr-2020 4:53am EDT
Clear
Clear
 Wind from NW
Wind: NW 6 mph , 9 km/h
Temperature: 37°F , 3°C
Wind Chill: 32°F , 0°C
Dew Point: 34°F , 1°C
Humidity: 87%
Barometer: 30.08 inHg , 1018.6 hPa
Clouds: Clear
Visibility: 10 miles , 16 km
2020/04/02 08:53 KOSU 020853Z AUTO 32005KT 10SM CLR 03/01 A3008 RMK AO2 SLP191 T00280011 55001
 
KMRT - Marysville, Ohio, USA
Distance from station: WSW 16mi, 26km
Updated: Thu, 02-Apr-2020 4:56am EDT
Clear
Clear
 Wind from NNW
Wind: NNW 5 mph , 7 km/h
Temperature: 37°F , 3°C
Wind Chill: 33°F , 1°C
Dew Point: 36°F , 2°C
Humidity: 93%
Barometer: 30.09 inHg , 1019 hPa
Clouds: Clear
Visibility: 10 miles , 16 km
2020/04/02 08:56 KMRT 020856Z AUTO 34004KT 10SM CLR 03/02 A3009 RMK AO2 T00330023
KMNN - Marion, Ohio, USA
Distance from station: N 21mi, 34km
Updated: Thu, 02-Apr-2020 4:53am EDT
Clear
Clear
 Wind from WNW
Wind: WNW 6 mph , 9 km/h
Temperature: 37°F , 3°C
Wind Chill: 32°F , 0°C
Dew Point: 34°F , 1°C
Humidity: 87%
Barometer: 30.09 inHg , 1019 hPa
Clouds: Clear
Visibility: 7 miles , 11 km
2020/04/02 08:53 KMNN 020853Z AUTO 30005KT 7SM CLR 03/01 A3009 RMK AO2 SLP194 T00280011 55000
 
KCMH - Columbus, Ohio, USA
Distance from station: SSE 24mi, 38km
Updated: Thu, 02-Apr-2020 4:51am EDT
Clear
Clear
 Wind from N
Wind: N 5 mph , 7 km/h
Temperature: 37°F , 3°C
Wind Chill: 33°F , 1°C
Dew Point: 36°F , 2°C
Humidity: 93%
Barometer: 30.08 inHg , 1018.6 hPa
Clouds: Clear
Visibility: 10 miles , 16 km
2020/04/02 08:51 KCMH 020851Z 35004KT 10SM CLR 03/02 A3008 RMK AO2 SLP190 T00330017 55000
K4I3 - Mt Vernon/Knox, Ohio, USA
Distance from station: E 29mi, 46km
Updated: Thu, 02-Apr-2020 4:55am EDT
Clear
Clear
 Wind from WNW
Wind: WNW 7 mph , 11 km/h
Temperature: 37°F , 3°C
Wind Chill: 32°F , 0°C
Dew Point: 36°F , 2°C
Humidity: 93%
Barometer: 30.08 inHg , 1018.6 hPa
Clouds: Clear
Visibility: 10 miles , 16 km
2020/04/02 08:55 K4I3 020855Z AUTO 29006KT 10SM CLR 03/02 A3008 RMK AO2
 
KTZR - Columbus/Bolton, Ohio, USA
Distance from station: S 29mi, 46km
Updated: Thu, 02-Apr-2020 4:55am EDT
Clear
Clear
 Wind from NW
Wind: NW 6 mph , 9 km/h
Temperature: 37°F , 3°C
Wind Chill: 32°F , 0°C
Dew Point: 37°F , 3°C
Humidity: 100%
Barometer: 30.09 inHg , 1019 hPa
Clouds: Clear
Visibility: 10 miles , 16 km
2020/04/02 08:55 KTZR 020855Z AUTO 32005KT 10SM CLR 03/03 A3009 RMK AO2 T00320025 PWINO
KUYF - London, Ohio, USA
Distance from station: SW 33mi, 54km
Updated: Thu, 02-Apr-2020 4:55am EDT
Clear
Clear
 Wind from WNW
Wind: WNW 6 mph , 9 km/h
Temperature: 36°F , 2°C
Wind Chill: 31°F , -1°C
Dew Point: 34°F , 1°C
Humidity: 93%
Barometer: 30.09 inHg , 1019 hPa
Clouds: Clear
Visibility: 10 miles , 16 km
2020/04/02 08:55 KUYF 020855Z AUTO 29005KT 10SM CLR 02/01 A3009 RMK AO2
 
KLCK - Rickenbacker Ang, Ohio, USA
Distance from station: SSE 35mi, 57km
Updated: Thu, 02-Apr-2020 4:55am EDT
Clear
Clear
 Wind from calm
Wind: Calm
Temperature: 37°F , 3°C
Dew Point: 36°F , 2°C
Humidity: 93%
Barometer: 30.08 inHg , 1018.6 hPa
Clouds: Clear
Visibility: 10 miles , 16 km
2020/04/02 08:55 KLCK 020855Z AUTO 00000KT 10SM CLR 03/02 A3008 RMK AO2 T00320023
KVTA - Newark, Ohio, USA
Distance from station: ESE 38mi, 61km
Updated: Thu, 02-Apr-2020 4:54am EDT
Clear
Clear
 Wind from NW
Wind: NW 5 mph , 7 km/h
Temperature: 39°F , 4°C
Wind Chill: 35°F , 2°C
Dew Point: 36°F , 2°C
Humidity: 87%
Barometer: 30.07 inHg , 1018.3 hPa
Clouds: Clear
Visibility: 9 miles , 14 km
2020/04/02 08:54 KVTA 020854Z AUTO 32004KT 9SM CLR 04/02 A3007 RMK AO2 SLP186 T00440017 52002
 
KEDJ - Bellefontaine, Ohio, USA
Distance from station: W 39mi, 63km
Updated: Thu, 02-Apr-2020 5:00am EDT
Overcast
Overcast
 Wind from calm
Wind: Calm
Temperature: 36°F , 2°C
Barometer: 30.10 inHg , 1019.3 hPa
Clouds: Overcast
Visibility: 1/2 mile , 0.8 km
Cloud details: Overcast 500 ft
2020/04/02 09:00 KEDJ 020900Z AUTO 00000KT 1/2SM VV005 02/ A3010 RMK AO1
KLHQ - Lancaster, Ohio, USA
Distance from station: SSE 44mi, 71km
Updated: Thu, 02-Apr-2020 4:53am EDT
Clear
Clear
 Wind from calm
Wind: Calm
Temperature: 37°F , 3°C
Dew Point: 36°F , 2°C
Humidity: 93%
Barometer: 30.08 inHg , 1018.6 hPa
Clouds: Clear
Visibility: 7 miles , 11 km
2020/04/02 08:53 KLHQ 020853Z AUTO 00000KT 7SM CLR 03/02 A3008 RMK AO2 SLP191 T00280022 55000
 
KMFD - Mansfield, Ohio, USA
Distance from station: NE 46mi, 73km
Updated: Thu, 02-Apr-2020 4:52am EDT
Clear
Clear
 Wind from WNW
Wind: WNW 6 mph , 9 km/h
Temperature: 39°F , 4°C
Wind Chill: 35°F , 2°C
Dew Point: 37°F , 3°C
Humidity: 93%
Barometer: 30.06 inHg , 1017.9 hPa
Clouds: Clear
Visibility: 8 miles , 13 km
2020/04/02 08:52 KMFD 020852Z AUTO 30005KT 8SM CLR 04/03 A3006 RMK AO2 SLP185 T00390028 55002
KSGH - Springfield Muni, Ohio, USA
Distance from station: SW 52mi, 84km
Updated: Thu, 02-Apr-2020 4:56am EDT
Clear
Clear
 Wind from NW
Wind: NW 5 mph , 7 km/h
Temperature: 37°F , 3°C
Wind Chill: 33°F , 1°C
Dew Point: 37°F , 3°C
Humidity: 100%
Barometer: 30.10 inHg , 1019.3 hPa
Clouds: Clear
Visibility: 10 miles , 16 km
2020/04/02 08:56 KSGH 020856Z AUTO 32004KT 10SM CLR 03/03 A3010 RMK AO2 SLP199 P0065 60136 T00280028 55001
 
KI23 - Washington Court, Ohio, USA
Distance from station: SSW 55mi, 88km
Updated: Thu, 02-Apr-2020 4:55am EDT
Clear
Clear
 Wind from WNW
Wind: WNW 6 mph , 9 km/h
Temperature: 36°F , 2°C
Wind Chill: 31°F , -1°C
Dew Point: 34°F , 1°C
Humidity: 93%
Barometer: 30.08 inHg , 1018.6 hPa
Clouds: Clear
Visibility: 10 miles , 16 km
2020/04/02 08:55 KI23 020855Z AUTO 29005KT 10SM CLR 02/01 A3008 RMK AO1
KAOH - Lima, Ohio, USA
Distance from station: WNW 56mi, 91km
Updated: Thu, 02-Apr-2020 4:53am EDT
Clear
Clear
 Wind from WNW
Wind: WNW 5 mph , 7 km/h
Temperature: 37°F , 3°C
Wind Chill: 33°F , 1°C
Dew Point: 36°F , 2°C
Humidity: 93%
Barometer: 30.09 inHg , 1019 hPa
Clouds: Clear
Visibility: 8 miles , 13 km
2020/04/02 08:53 KAOH 020853Z AUTO 29004KT 8SM CLR 03/02 A3009 RMK AO2 SLP195 T00330022 55000
 
KFDY - Findlay, Ohio, USA
Distance from station: NNW 58mi, 93km
Updated: Thu, 02-Apr-2020 4:53am EDT
Clear
Clear
 Wind from W
Wind: W 5 mph , 7 km/h
Temperature: 37°F , 3°C
Wind Chill: 33°F , 1°C
Dew Point: 36°F , 2°C
Humidity: 93%
Barometer: 30.09 inHg , 1019 hPa
Clouds: Clear
Visibility: 8 miles , 13 km
2020/04/02 08:53 KFDY 020853Z AUTO 28004KT 8SM CLR 03/02 A3009 RMK AO2 SLP189 T00330022 53001
KFFO - Wright Paterson, Ohio, USA
Distance from station: SW 61mi, 98km
Updated: Thu, 02-Apr-2020 4:56am EDT
Clear
Clear
 Wind from WSW
Wind: WSW 3 mph , 6 km/h
Temperature: 36°F , 2°C
Dew Point: 34°F , 1°C
Humidity: 93%
Barometer: 30.10 inHg , 1019.3 hPa
Clouds: Clear
Visibility: 10 miles , 16 km
2020/04/02 08:56 KFFO 020856Z 24003KT 10SM CLR 02/01 A3010 RMK AO2A SLP201 T00230008 55001
 
KRZT - Chillicothe, Ohio, USA
Distance from station: S 61mi, 98km
Updated: Thu, 02-Apr-2020 4:55am EDT
Clear
Clear
 Wind from WNW
Wind: WNW 5 mph , 7 km/h
Temperature: 39°F , 4°C
Wind Chill: 35°F , 2°C
Dew Point: 37°F , 3°C
Humidity: 93%
Barometer: 30.09 inHg , 1019 hPa
Clouds: Clear
Visibility: 10 miles , 16 km
2020/04/02 08:55 KRZT 020855Z AUTO 30004KT 10SM CLR 04/03 A3009 RMK AO2 PWINO
KI19 - Dayton-Jackson, Ohio, USA
Distance from station: SW 65mi, 105km
Updated: Thu, 02-Apr-2020 4:56am EDT
Clear
Clear
 Wind from calm
Wind: Calm
Temperature: 39°F , 4°C
Dew Point: 37°F , 3°C
Humidity: 93%
Barometer: 30.11 inHg , 1019.6 hPa
Clouds: Clear
Visibility: 10 miles , 16 km
2020/04/02 08:56 KI19 020856Z AUTO 00000KT 10SM CLR 04/03 A3011 RMK AO2 T00440030